createdAt,value
2017-12-13T00:02:16.243Z,6.40
2017-12-13T00:04:44.508Z,5.72
2017-12-13T00:07:14.560Z,5.43
2017-12-13T00:09:42.825Z,5.80
2017-12-13T00:12:15.677Z,5.65
2017-12-13T00:14:43.938Z,5.85
2017-12-13T00:17:14.276Z,5.50
2017-12-13T00:19:42.543Z,6.15
2017-12-13T00:22:14.100Z,5.50
2017-12-13T00:24:42.378Z,6.05
2017-12-13T00:27:17.524Z,5.93
2017-12-13T00:29:45.792Z,5.87
2017-12-13T00:32:14.055Z,5.97
2017-12-13T00:34:42.384Z,5.93
2017-12-13T00:37:17.524Z,5.78
2017-12-13T00:39:45.833Z,5.43
2017-12-13T00:42:14.108Z,5.85
2017-12-13T00:44:42.516Z,6.15
2017-12-13T00:47:16.561Z,5.90
2017-12-13T00:49:45.008Z,5.97
2017-12-13T00:52:14.294Z,5.62
2017-12-13T00:54:42.719Z,5.62
2017-12-13T00:57:14.512Z,5.90
2017-12-13T00:59:42.808Z,6.10
2017-12-13T01:02:14.373Z,6.10
2017-12-13T01:04:42.681Z,6.40
2017-12-13T01:07:13.968Z,6.82
2017-12-13T01:09:42.239Z,6.50
2017-12-13T01:12:13.721Z,6.40
2017-12-13T01:14:41.984Z,5.97
2017-12-13T01:17:13.888Z,6.43
2017-12-13T01:19:42.176Z,6.22
2017-12-13T01:22:13.885Z,6.00
2017-12-13T01:24:42.364Z,5.32
2017-12-13T01:27:17.599Z,6.18
2017-12-13T01:29:46.772Z,5.68
2017-12-13T01:32:15.052Z,5.40
2017-12-13T01:34:43.560Z,5.78
2017-12-13T01:37:14.777Z,6.10
2017-12-13T01:39:43.244Z,6.40
2017-12-13T01:42:15.195Z,5.90
2017-12-13T01:44:43.489Z,6.37
2017-12-13T01:47:15.625Z,5.93
2017-12-13T01:49:43.953Z,6.40
2017-12-13T01:52:19.313Z,5.47
2017-12-13T01:54:47.613Z,5.53
2017-12-13T01:57:16.052Z,6.43
2017-12-13T01:59:44.424Z,6.43
2017-12-13T02:02:14.293Z,6.07
2017-12-13T02:04:42.613Z,5.72
2017-12-13T02:07:14.231Z,5.93
2017-12-13T02:09:42.496Z,5.97
2017-12-13T02:12:13.809Z,5.93
2017-12-13T02:14:42.073Z,6.05
2017-12-13T02:17:17.066Z,5.87
2017-12-13T02:19:45.749Z,5.90
2017-12-13T02:22:13.999Z,6.97
2017-12-13T02:24:42.259Z,6.60
2017-12-13T02:27:13.803Z,5.93
2017-12-13T02:29:42.095Z,6.60
2017-12-13T02:32:13.373Z,6.65
2017-12-13T02:34:41.650Z,6.40
2017-12-13T02:37:16.492Z,5.85
2017-12-13T02:39:44.761Z,6.07
2017-12-13T02:42:14.642Z,6.30
2017-12-13T02:44:42.917Z,6.43
2017-12-13T02:47:15.031Z,6.18
2017-12-13T02:49:43.307Z,7.20
2017-12-13T02:52:13.990Z,6.20
2017-12-13T02:54:42.368Z,7.10
2017-12-13T02:57:17.556Z,6.60
2017-12-13T02:59:45.837Z,6.35
2017-12-13T03:02:14.717Z,6.45
2017-12-13T03:04:43.002Z,6.35
2017-12-13T03:07:14.596Z,5.93
2017-12-13T03:09:42.889Z,6.55
2017-12-13T03:12:14.987Z,6.15
2017-12-13T03:14:43.328Z,6.00
2017-12-13T03:17:15.577Z,6.47
2017-12-13T03:19:43.868Z,5.72
2017-12-13T03:22:15.826Z,6.20
2017-12-13T03:24:44.092Z,5.47
2017-12-13T03:27:14.249Z,5.57
2017-12-13T03:29:42.529Z,5.32
2017-12-13T03:32:14.704Z,5.35
2017-12-13T03:34:43.069Z,5.05
2017-12-13T03:37:15.063Z,4.55
2017-12-13T03:39:43.376Z,4.80
2017-12-13T03:42:14.803Z,4.20
2017-12-13T03:44:43.073Z,4.87
2017-12-13T03:47:15.812Z,4.22
2017-12-13T03:49:44.088Z,4.53
2017-12-13T03:52:17.280Z,4.32
2017-12-13T03:54:45.560Z,4.15
2017-12-13T03:57:14.281Z,4.28
2017-12-13T03:59:43.034Z,4.10
2017-12-13T04:02:14.413Z,4.20
2017-12-13T04:04:43.109Z,4.47
2017-12-13T04:07:15.194Z,4.68
2017-12-13T04:09:43.852Z,4.65
2017-12-13T04:12:15.728Z,4.28
2017-12-13T04:14:44.014Z,4.80
2017-12-13T04:17:14.210Z,4.18
2017-12-13T04:19:42.709Z,4.10
2017-12-13T04:22:14.214Z,4.30
2017-12-13T04:24:42.521Z,4.00
2017-12-13T04:27:14.085Z,4.57
2017-12-13T04:29:42.362Z,4.40
2017-12-13T04:32:13.904Z,4.50
2017-12-13T04:34:42.199Z,4.20
2017-12-13T04:37:13.452Z,4.10
2017-12-13T04:39:41.761Z,4.53
2017-12-13T04:42:17.161Z,4.05
2017-12-13T04:44:45.443Z,4.62
2017-12-13T04:47:14.807Z,4.65
2017-12-13T04:49:43.086Z,4.07
2017-12-13T04:52:14.393Z,4.55
2017-12-13T04:54:42.660Z,4.15
2017-12-13T04:57:14.573Z,4.40
2017-12-13T04:59:42.857Z,4.30
2017-12-13T05:02:14.987Z,4.37
2017-12-13T05:04:43.425Z,4.20
2017-12-13T05:07:16.271Z,4.72
2017-12-13T05:09:44.544Z,4.45
2017-12-13T05:12:13.888Z,4.53
2017-12-13T05:14:42.152Z,4.30
2017-12-13T05:17:14.304Z,4.90
2017-12-13T05:19:42.566Z,4.22
2017-12-13T05:22:13.823Z,4.75
2017-12-13T05:24:42.098Z,4.35
2017-12-13T05:27:14.374Z,5.05
2017-12-13T05:29:42.673Z,4.45
2017-12-13T05:32:14.677Z,4.45
2017-12-13T05:34:43.189Z,4.72
2017-12-13T05:37:13.048Z,4.80
2017-12-13T05:39:41.846Z,4.40
2017-12-13T05:42:13.093Z,4.18
2017-12-13T05:44:41.387Z,4.32
2017-12-13T05:47:16.531Z,4.18
2017-12-13T05:49:44.813Z,4.45
2017-12-13T05:52:13.096Z,3.53
2017-12-13T05:54:41.388Z,3.90
2017-12-13T05:57:13.568Z,3.75
2017-12-13T05:59:41.849Z,3.72
2017-12-13T06:02:13.372Z,4.20
2017-12-13T06:04:41.657Z,3.87
2017-12-13T06:07:15.578Z,4.03
2017-12-13T06:09:43.868Z,3.60
2017-12-13T06:12:13.058Z,3.80
2017-12-13T06:14:41.352Z,3.90
2017-12-13T06:17:12.928Z,3.67
2017-12-13T06:19:41.203Z,3.40
2017-12-13T06:22:12.508Z,3.42
2017-12-13T06:24:40.860Z,3.40
2017-12-13T06:27:13.352Z,3.67
2017-12-13T06:29:41.612Z,3.70
2017-12-13T06:32:13.772Z,3.03
2017-12-13T06:34:42.273Z,3.20
2017-12-13T06:37:13.322Z,3.70
2017-12-13T06:39:41.900Z,3.90
2017-12-13T06:42:13.990Z,3.28
2017-12-13T06:44:42.261Z,3.62
2017-12-13T06:47:13.464Z,3.25
2017-12-13T06:49:41.745Z,3.60
2017-12-13T06:52:14.241Z,3.10
2017-12-13T06:54:42.528Z,3.28
2017-12-13T06:57:14.564Z,3.30
2017-12-13T06:59:42.829Z,3.28
2017-12-13T07:02:14.957Z,3.35
2017-12-13T07:04:43.793Z,3.17
2017-12-13T07:07:13.405Z,3.70
2017-12-13T07:09:41.695Z,3.00
2017-12-13T07:12:13.809Z,3.00
2017-12-13T07:14:42.225Z,3.17
2017-12-13T07:17:14.863Z,3.37
2017-12-13T07:19:43.155Z,2.97
2017-12-13T07:22:14.629Z,3.00
2017-12-13T07:24:42.908Z,2.78
2017-12-13T07:27:14.239Z,3.10
2017-12-13T07:29:42.789Z,2.90
2017-12-13T07:32:14.676Z,3.22
2017-12-13T07:34:42.959Z,3.15
2017-12-13T07:37:14.948Z,2.65
2017-12-13T07:39:43.347Z,3.30
2017-12-13T07:42:13.316Z,3.10
2017-12-13T07:44:41.603Z,3.33
2017-12-13T07:47:16.504Z,2.80
2017-12-13T07:49:44.781Z,3.00
2017-12-13T07:52:13.140Z,3.40
2017-12-13T07:54:41.568Z,3.25
2017-12-13T07:57:16.723Z,3.50
2017-12-13T07:59:45.041Z,3.10
2017-12-13T08:02:13.365Z,2.95
2017-12-13T08:04:41.655Z,4.12
2017-12-13T08:07:16.643Z,3.20
2017-12-13T08:09:44.929Z,2.62
2017-12-13T08:12:13.249Z,2.78
2017-12-13T08:14:41.512Z,2.80
2017-12-13T08:17:16.637Z,3.00
2017-12-13T08:19:44.934Z,3.03
2017-12-13T08:22:13.327Z,2.70
2017-12-13T08:24:41.593Z,2.95
2017-12-13T08:27:16.743Z,2.92
2017-12-13T08:29:45.032Z,2.70
2017-12-13T08:32:13.640Z,2.70
2017-12-13T08:34:42.417Z,2.78
2017-12-13T08:37:14.028Z,2.97
2017-12-13T08:39:42.305Z,2.58
2017-12-13T08:42:13.064Z,2.78
2017-12-13T08:44:41.627Z,2.90
2017-12-13T08:47:12.917Z,3.20
2017-12-13T08:49:41.233Z,2.78
2017-12-13T08:52:12.774Z,2.60
2017-12-13T08:54:41.128Z,2.80
2017-12-13T08:57:16.136Z,2.80
2017-12-13T08:59:44.561Z,2.85
2017-12-13T09:02:13.180Z,3.10
2017-12-13T09:04:41.472Z,2.90
2017-12-13T09:07:12.921Z,2.70
2017-12-13T09:09:41.193Z,3.03
2017-12-13T09:12:16.158Z,3.00
2017-12-13T09:14:44.476Z,2.35
2017-12-13T09:17:14.252Z,2.50
2017-12-13T09:19:42.489Z,2.80
2017-12-13T09:22:13.828Z,2.62
2017-12-13T09:24:42.112Z,3.15
2017-12-13T09:27:14.224Z,3.03
2017-12-13T09:29:42.500Z,2.87
2017-12-13T09:32:13.173Z,3.20
2017-12-13T09:34:41.483Z,2.83
2017-12-13T09:37:12.966Z,2.90
2017-12-13T09:39:41.717Z,3.20
2017-12-13T09:42:13.293Z,3.05
2017-12-13T09:44:41.577Z,3.00
2017-12-13T09:47:16.510Z,2.90
2017-12-13T09:49:44.781Z,2.85
2017-12-13T09:52:13.426Z,3.08
2017-12-13T09:54:41.707Z,3.08
2017-12-13T09:57:15.860Z,2.80
2017-12-13T09:59:44.134Z,2.67
2017-12-13T10:02:13.633Z,2.70
2017-12-13T10:04:42.224Z,2.78
2017-12-13T10:07:14.085Z,2.50
2017-12-13T10:09:42.361Z,2.20
2017-12-13T10:12:13.573Z,2.58
2017-12-13T10:14:42.341Z,2.47
2017-12-13T10:17:14.273Z,2.87
2017-12-13T10:19:42.594Z,2.33
2017-12-13T10:22:13.784Z,2.30
2017-12-13T10:24:42.077Z,2.40
2017-12-13T10:27:13.292Z,2.20
2017-12-13T10:29:41.805Z,2.08
2017-12-13T10:32:14.073Z,2.53
2017-12-13T10:34:42.365Z,2.45
2017-12-13T10:37:14.298Z,2.20
2017-12-13T10:39:42.749Z,2.87
2017-12-13T10:42:14.836Z,2.60
2017-12-13T10:44:43.127Z,2.55
2017-12-13T10:47:13.414Z,2.17
2017-12-13T10:49:41.645Z,2.00
2017-12-13T10:52:12.945Z,1.85
2017-12-13T10:54:41.229Z,2.15
2017-12-13T10:57:12.494Z,1.95
2017-12-13T10:59:40.777Z,1.80
2017-12-13T11:02:12.394Z,1.85
2017-12-13T11:04:44.912Z,1.95
2017-12-13T11:07:13.264Z,1.80
2017-12-13T11:09:41.537Z,2.20
2017-12-13T11:12:13.302Z,2.17
2017-12-13T11:14:41.573Z,2.35
2017-12-13T11:17:13.097Z,2.20
2017-12-13T11:19:41.394Z,1.75
2017-12-13T11:22:13.655Z,2.10
2017-12-13T11:24:41.942Z,2.08
2017-12-13T11:27:13.352Z,2.10
2017-12-13T11:29:41.657Z,1.85
2017-12-13T11:32:13.588Z,2.10
2017-12-13T11:34:41.907Z,2.10
2017-12-13T11:37:13.567Z,1.85
2017-12-13T11:39:41.846Z,1.60
2017-12-13T11:42:13.978Z,1.80
2017-12-13T11:44:42.295Z,2.40
2017-12-13T11:47:13.827Z,1.27
2017-12-13T11:49:42.115Z,1.50
2017-12-13T11:52:13.340Z,1.52
2017-12-13T11:54:41.622Z,1.42
2017-12-13T11:57:16.557Z,1.50
2017-12-13T11:59:44.853Z,1.37
2017-12-13T12:02:13.214Z,1.17
2017-12-13T12:04:41.489Z,1.20
2017-12-13T12:07:16.530Z,1.52
2017-12-13T12:09:45.108Z,1.60
2017-12-13T12:12:13.414Z,1.35
2017-12-13T12:14:41.688Z,1.40
2017-12-13T12:17:13.067Z,1.45
2017-12-13T12:19:41.366Z,1.37
2017-12-13T12:22:13.111Z,0.90
2017-12-13T12:24:41.387Z,0.70
2017-12-13T12:27:13.793Z,0.98
2017-12-13T12:29:42.101Z,0.60
2017-12-13T12:32:13.695Z,0.70
2017-12-13T12:34:42.148Z,0.80
2017-12-13T12:37:13.824Z,0.60
2017-12-13T12:39:42.114Z,0.62
2017-12-13T12:42:13.177Z,0.68
2017-12-13T12:44:41.459Z,0.90
2017-12-13T12:47:12.979Z,0.80
2017-12-13T12:49:41.569Z,0.62
2017-12-13T12:52:13.381Z,1.00
2017-12-13T12:54:41.678Z,0.90
2017-12-13T12:57:14.050Z,0.80
2017-12-13T12:59:42.327Z,0.70
2017-12-13T13:02:13.171Z,0.65
2017-12-13T13:04:41.439Z,0.90
2017-12-13T13:07:12.995Z,0.90
2017-12-13T13:09:41.275Z,0.80
2017-12-13T13:12:12.547Z,1.15
2017-12-13T13:14:41.323Z,1.08
2017-12-13T13:17:12.580Z,0.80
2017-12-13T13:19:41.165Z,0.80
2017-12-13T13:22:12.792Z,0.80
2017-12-13T13:24:41.289Z,0.70
2017-12-13T13:27:12.540Z,0.73
2017-12-13T13:29:40.821Z,1.00
2017-12-13T13:32:15.430Z,0.57
2017-12-13T13:34:43.976Z,0.62
2017-12-13T13:37:13.382Z,0.50
2017-12-13T13:39:41.692Z,0.70
2017-12-13T13:42:15.785Z,0.80
2017-12-13T13:44:44.078Z,0.80
2017-12-13T13:47:13.465Z,0.70
2017-12-13T13:49:41.784Z,0.70
2017-12-13T13:52:13.935Z,0.60
2017-12-13T13:54:42.211Z,0.70
2017-12-13T13:57:14.986Z,0.90
2017-12-13T13:59:43.264Z,0.55
2017-12-13T14:02:13.141Z,0.77
2017-12-13T14:04:41.449Z,0.70
2017-12-13T14:07:12.982Z,0.60
2017-12-13T14:09:41.361Z,0.50
2017-12-13T14:12:14.337Z,0.90
2017-12-13T14:14:42.793Z,0.70
2017-12-13T14:17:15.301Z,0.50
2017-12-13T14:19:43.969Z,0.70
2017-12-13T14:22:13.164Z,0.60
2017-12-13T14:24:41.452Z,0.60
2017-12-13T14:27:14.797Z,0.60
2017-12-13T14:29:43.094Z,0.90
2017-12-13T14:32:13.352Z,0.60
2017-12-13T14:34:42.301Z,1.20
2017-12-13T14:37:13.400Z,0.90
2017-12-13T14:39:41.669Z,0.82
2017-12-13T14:42:16.820Z,0.70
2017-12-13T14:44:45.408Z,0.80
2017-12-13T14:47:13.705Z,0.80
2017-12-13T14:49:41.987Z,0.82
2017-12-13T14:52:13.226Z,0.77
2017-12-13T14:54:41.494Z,0.88
2017-12-13T14:57:16.736Z,0.95
2017-12-13T14:59:45.029Z,0.77
2017-12-13T15:02:13.592Z,0.60
2017-12-13T15:04:42.031Z,0.62
2017-12-13T15:07:13.384Z,0.40
2017-12-13T15:09:41.907Z,0.50
2017-12-13T15:12:13.290Z,0.60
2017-12-13T15:14:41.651Z,0.98
2017-12-13T15:17:16.776Z,0.80
2017-12-13T15:19:45.065Z,0.90
2017-12-13T15:22:13.333Z,0.82
2017-12-13T15:24:41.621Z,0.80
2017-12-13T15:27:16.648Z,0.70
2017-12-13T15:29:45.536Z,0.82
2017-12-13T15:32:13.817Z,0.50
2017-12-13T15:34:42.104Z,0.70
2017-12-13T15:37:13.172Z,1.00
2017-12-13T15:39:42.083Z,1.40
2017-12-13T15:42:15.081Z,1.00
2017-12-13T15:44:43.346Z,0.80
2017-12-13T15:47:14.913Z,0.68
2017-12-13T15:49:43.235Z,0.90
2017-12-13T15:52:13.130Z,0.90
2017-12-13T15:54:41.417Z,1.00
2017-12-13T15:57:13.135Z,2.70
2017-12-13T15:59:41.377Z,1.80
2017-12-13T16:02:14.293Z,1.25
2017-12-13T16:04:42.591Z,1.20
2017-12-13T16:07:14.405Z,1.20
2017-12-13T16:09:42.681Z,0.95
2017-12-13T16:12:14.591Z,1.77
2017-12-13T16:14:43.105Z,0.90
2017-12-13T16:17:14.716Z,0.80
2017-12-13T16:19:43.229Z,0.50
2017-12-13T16:22:13.283Z,1.50
2017-12-13T16:24:41.760Z,1.20
2017-12-13T16:27:13.044Z,1.08
2017-12-13T16:29:41.330Z,2.00
2017-12-13T16:32:12.573Z,2.25
2017-12-13T16:34:41.428Z,2.45
2017-12-13T16:37:15.620Z,1.50
2017-12-13T16:39:43.937Z,1.52
2017-12-13T16:42:13.449Z,0.80
2017-12-13T16:44:41.732Z,1.20
2017-12-13T16:47:13.197Z,0.80
2017-12-13T16:49:41.658Z,1.10
2017-12-13T16:52:16.679Z,1.10
2017-12-13T16:54:44.948Z,0.98
2017-12-13T16:57:13.233Z,1.10
2017-12-13T16:59:41.513Z,1.00
2017-12-13T17:02:16.689Z,0.85
2017-12-13T17:04:45.190Z,1.20
2017-12-13T17:07:13.469Z,0.70
2017-12-13T17:09:41.747Z,0.88
2017-12-13T17:12:13.756Z,1.00
2017-12-13T17:14:42.041Z,0.80
2017-12-13T17:17:14.097Z,0.98
2017-12-13T17:19:42.365Z,0.90
2017-12-13T17:22:15.320Z,0.68
2017-12-13T17:24:43.552Z,0.80
2017-12-13T17:27:13.718Z,0.98
2017-12-13T17:29:41.978Z,1.00
2017-12-13T17:32:13.405Z,1.10
2017-12-13T17:34:41.674Z,1.23
2017-12-13T17:37:13.649Z,1.30
2017-12-13T17:39:42.112Z,1.20
2017-12-13T17:42:13.900Z,1.20
2017-12-13T17:44:42.194Z,1.42
2017-12-13T17:47:13.377Z,1.35
2017-12-13T17:49:42.372Z,1.20
2017-12-13T17:52:13.184Z,1.30
2017-12-13T17:54:41.446Z,1.40
2017-12-13T17:57:12.918Z,1.10
2017-12-13T17:59:41.196Z,1.00
2017-12-13T18:02:16.241Z,1.12
2017-12-13T18:04:44.509Z,1.70
2017-12-13T18:07:13.264Z,1.60
2017-12-13T18:09:42.322Z,1.50
2017-12-13T18:12:14.012Z,2.10
2017-12-13T18:14:42.513Z,1.60
2017-12-13T18:17:13.165Z,1.20
2017-12-13T18:19:41.438Z,1.10
2017-12-13T18:22:12.866Z,1.12
2017-12-13T18:24:41.124Z,1.25
2017-12-13T18:27:16.092Z,1.30
2017-12-13T18:29:44.471Z,1.20
2017-12-13T18:32:13.809Z,1.05
2017-12-13T18:34:42.453Z,1.40
2017-12-13T18:37:14.077Z,1.33
2017-12-13T18:39:42.377Z,1.30
2017-12-13T18:42:14.482Z,0.90
2017-12-13T18:44:42.858Z,1.37
2017-12-13T18:47:14.772Z,1.10
2017-12-13T18:49:43.154Z,1.73
2017-12-13T18:52:14.581Z,1.42
2017-12-13T18:54:42.893Z,1.02
2017-12-13T18:57:15.824Z,1.02
2017-12-13T18:59:44.125Z,1.10
2017-12-13T19:02:13.472Z,1.12
2017-12-13T19:04:41.757Z,1.23
2017-12-13T19:07:13.558Z,1.48
2017-12-13T19:09:42.668Z,1.77
2017-12-13T19:12:14.716Z,1.60
2017-12-13T19:14:42.977Z,1.50
2017-12-13T19:17:15.079Z,1.50
2017-12-13T19:19:43.373Z,1.50
2017-12-13T19:22:14.614Z,1.52
2017-12-13T19:24:43.184Z,1.70
2017-12-13T19:27:15.136Z,1.60
2017-12-13T19:29:43.692Z,1.60
2017-12-13T19:32:13.730Z,1.60
2017-12-13T19:34:42.492Z,1.77
2017-12-13T19:37:14.001Z,1.60
2017-12-13T19:39:42.255Z,1.50
2017-12-13T19:42:13.213Z,1.57
2017-12-13T19:44:41.478Z,1.80
2017-12-13T19:47:13.132Z,1.40
2017-12-13T19:49:42.416Z,1.37
2017-12-13T19:52:14.180Z,1.30
2017-12-13T19:54:42.888Z,1.33
2017-12-13T19:57:14.497Z,1.57
2017-12-13T19:59:42.813Z,1.67
2017-12-13T20:02:14.043Z,1.10
2017-12-13T20:04:42.605Z,1.40
2017-12-13T20:07:14.490Z,1.57
2017-12-13T20:09:42.745Z,1.33
2017-12-13T20:12:14.092Z,1.23
2017-12-13T20:14:42.377Z,1.42
2017-12-13T20:17:13.874Z,1.43
2017-12-13T20:19:42.390Z,1.35
2017-12-13T20:22:13.638Z,1.67
2017-12-13T20:24:41.929Z,1.30
2017-12-13T20:27:13.428Z,1.80
2017-12-13T20:29:41.664Z,1.40
2017-12-13T20:32:13.344Z,1.42
2017-12-13T20:34:42.142Z,1.45
2017-12-13T20:37:13.933Z,1.30
2017-12-13T20:39:42.353Z,1.50
2017-12-13T20:42:14.236Z,1.48
2017-12-13T20:44:42.537Z,1.90
2017-12-13T20:47:14.527Z,1.42
2017-12-13T20:49:42.836Z,1.50
2017-12-13T20:52:14.865Z,1.27
2017-12-13T20:54:43.146Z,1.17
2017-12-13T20:57:12.898Z,1.20
2017-12-13T20:59:41.177Z,1.30
2017-12-13T21:02:13.128Z,1.02
2017-12-13T21:04:41.681Z,1.10
2017-12-13T21:07:12.400Z,1.23
2017-12-13T21:09:40.653Z,1.15
2017-12-13T21:12:12.382Z,1.12
2017-12-13T21:14:40.651Z,0.90
2017-12-13T21:17:12.410Z,1.43
2017-12-13T21:19:40.693Z,1.00
2017-12-13T21:22:12.325Z,1.00
2017-12-13T21:24:40.796Z,1.20
2017-12-13T21:27:14.753Z,1.02
2017-12-13T21:29:43.039Z,0.63
2017-12-13T21:32:12.257Z,0.70
2017-12-13T21:34:40.531Z,0.60
2017-12-13T21:37:12.042Z,0.50
2017-12-13T21:39:40.312Z,0.73
2017-12-13T21:42:11.601Z,0.55
2017-12-13T21:44:39.938Z,0.70
2017-12-13T21:47:14.685Z,0.70
2017-12-13T21:49:43.373Z,0.98
2017-12-13T21:52:12.240Z,0.90
2017-12-13T21:54:41.281Z,0.65
2017-12-13T21:57:12.269Z,0.85
2017-12-13T21:59:40.565Z,0.70
2017-12-13T22:02:12.123Z,0.80
2017-12-13T22:04:40.385Z,0.90
2017-12-13T22:07:12.646Z,0.60
2017-12-13T22:09:40.933Z,0.70
2017-12-13T22:12:12.273Z,0.70
2017-12-13T22:14:40.545Z,0.63
2017-12-13T22:17:12.084Z,0.65
2017-12-13T22:19:40.365Z,0.60
2017-12-13T22:22:11.902Z,0.90
2017-12-13T22:24:40.204Z,0.87
2017-12-13T22:27:15.313Z,0.70
2017-12-13T22:29:43.621Z,0.80
2017-12-13T22:32:13.178Z,1.20
2017-12-13T22:34:41.545Z,0.70
2017-12-13T22:37:12.355Z,1.30
2017-12-13T22:39:40.928Z,1.20
2017-12-13T22:42:14.861Z,0.80
2017-12-13T22:44:43.156Z,0.90
2017-12-13T22:47:12.470Z,0.90
2017-12-13T22:49:40.925Z,1.30
2017-12-13T22:52:14.880Z,1.33
2017-12-13T22:54:43.144Z,1.20
2017-12-13T22:57:12.533Z,1.57
2017-12-13T22:59:40.965Z,1.70
2017-12-13T23:02:13.063Z,1.10
2017-12-13T23:04:41.350Z,1.10
2017-12-13T23:07:12.361Z,1.17
2017-12-13T23:09:40.645Z,1.10
2017-12-13T23:12:15.773Z,1.10
2017-12-13T23:14:44.066Z,0.93
2017-12-13T23:17:12.325Z,1.03
2017-12-13T23:19:40.629Z,1.37
2017-12-13T23:22:12.777Z,1.30
2017-12-13T23:24:41.087Z,1.53
2017-12-13T23:27:12.266Z,1.45
2017-12-13T23:29:40.845Z,1.27
2017-12-13T23:32:12.350Z,1.23
2017-12-13T23:34:40.638Z,1.50
2017-12-13T23:37:12.209Z,1.70
2017-12-13T23:39:41.237Z,1.17
2017-12-13T23:42:13.309Z,1.23
2017-12-13T23:44:41.576Z,1.07
2017-12-13T23:47:13.013Z,0.90
2017-12-13T23:49:41.381Z,1.20
2017-12-13T23:52:13.520Z,1.43
2017-12-13T23:54:41.782Z,1.27
2017-12-13T23:57:13.024Z,1.70
2017-12-13T23:59:41.248Z,1.53
